Pilot Magazine UKGA

About You

Log In Register UKGA membership

Flight planning

Flight planning New flightplan NOTAM map LARS map & NOTAMs Danger area, mil. & TRA activations Weather map GPS route download Find waypoints Your waypoints New waypoint

Forums

Forums Currently discussing "Logbook entries"

Other items

Articles Events Links News Surveys Tips Other users Feedback UKGA membership About UKGA

METARs

UK

EGAA 250950Z 20012KT 9999 SCT018 08/05 Q0984
EGAC 250950Z AUTO 21015KT 9999 FEW028/// 08/04 Q0984
EGAE 241450Z 20019KT 9999 FEW035 11/06 Q0984
EGBB 250950Z 19006KT 150V220 CAVOK 09/06 Q0994
EGBJ 250950Z 18009KT 140V210 9999 FEW019 FEW030CB 12/07 Q0994
EGCC 250950Z AUTO 20009KT 170V230 9999 NCD 10/06 Q0991 TEMPO SHRA
EGCK 250950Z AUTO 23017KT 9999 FEW040/// 12/06 Q0990
EGCN 250950Z 19011KT 9999 FEW021 09/07 Q0993
EGDM 250850Z AUTO 20006KT 9999 FEW034/// SCT050/// BKN110/// 08/07 Q0996 RERA
EGDR 250850Z AUTO 22021KT 9999 // FEW060/// 11/07 Q0995
EGDY 250850Z AUTO 17007KT 9999 FEW050/// 11/08 Q0995
EGFF 250950Z AUTO 23010KT 200V270 9999 -RA FEW028/// SCT036/// BKN044/// //////TCU 10/08 Q0995
EGGD 250950Z AUTO 19011KT 9999 SCT043 10/07 Q0995
EGGP 250950Z 19014KT 9999 VCSH SCT035 SCT038 10/07 Q0991
EGGW 250950Z AUTO 20011KT 9999 SCT012 10/08 Q0996
EGHC 241620Z 24010KT 9999 -RA BKN008 11/11 Q0994
EGHE 241650Z 24016KT 9999 VCSH FEW010 SCT030 12/10 Q0995
EGHH 250950Z VRB02KT 9999 VCSH SCT030 SCT040CB 12/11 Q0996
EGHI 241750Z 24013KT 200V270 5000 RA BKN012 14/13 Q0996 RERA 
EGHQ 250950Z 22014KT CAVOK 11/08 Q0995
EGJA 250950Z 22018KT 9999 VCSH FEW016CB SCT023 13/08 Q0998
EGJB 250950Z 22018KT 9999 FEW016CB 13/08 Q0998
EGJJ 250920Z 21018G28KT 9999 FEW016CB 12/08 Q0999
EGKA 250950Z 22016KT 9999 VCSH FEW014 SCT028CB 13/08 Q0997
EGKB 250950Z 21009KT 9999 -SHRA FEW020 10/08 Q0997 
EGKK 250950Z 22006KT 170V250 9999 FEW026 SCT048 12/09 Q0997
EGLC 250950Z AUTO 20009KT 170V230 9999 //////TCU 12/07 Q0997
EGLF 250950Z 23011KT 200V280 9999 -RA SCT012 SCT036 09/07 Q0997 RESHRA
EGLL 250950Z 21010KT 9999 VCSH FEW035CB 10/08 Q0997 TEMPO 4000 +SHRA
EGMC 250950Z 21010KT 9999 VCSH FEW009 10/08 Q0997 RESHRA
EGMD 250950Z 22017KT 9999 FEW019 13/09 Q0998
EGNH 250950Z 20017KT 9999 VCSH FEW008 SCT029CB 10/08 Q0990
EGNJ 250950Z 20020KT 9999 FEW030 11/08 Q0992
EGNM 250950Z 21015G25KT 180V240 9999 FEW016 FEW023TCU SCT041 10/05 Q0990
EGNR 250950Z 17007KT 9999 VCSH FEW020CB SCT037 09/07 Q0992
EGNS 250950Z 24022KT 9999 SCT028 11/05 Q0987 NOSIG
EGNT 250950Z 21015G28KT 170V240 9999 FEW030 10/05 Q0987
EGNV 250950Z 18012KT 9999 FEW035 10/06 Q0989
EGNX 250950Z 20013KT CAVOK 09/06 Q0993
EGOM 250850Z AUTO 21016KT 9999 SCT026/// SCT032/// 06/05 Q0985 RERA
EGOP 250850Z AUTO 22021KT 9999 // BKN060/// 11/08 Q0992
EGOS 250850Z AUTO 17011KT 9999 NCD 08/05 Q0992
EGOV 250850Z AUTO 24021KT 9999 FEW032/// 11/06 Q0989
EGPA 250950Z AUTO 18013KT 9999 NCD 09/05 Q0980
EGPB 250950Z 19016KT 9999 SCT020 10/06 Q0982
EGPC 250950Z 19017KT 9999 FEW016 10/05 Q0979
EGPD 250950Z AUTO 18017KT 9999 NCD 09/06 Q0982 NOSIG
EGPE 250950Z AUTO 17008KT 9999 NCD 10/04 Q0980
EGPF 250950Z AUTO 21017KT 9999 -RA FEW021 SCT025 BKN031 08/06 Q0983
EGPH 250950Z 21014KT 9999 SCT027 09/05 Q0983
EGPI 241220Z 21022KT 9999 SCT030 11/04 Q0986
EGPK 250950Z 21015KT 9999 FEW017 SCT032 10/06 Q0984
EGPL 250950Z AUTO 19022KT 9999 -RA FEW005/// SCT037/// BKN047/// 08/06 Q0973 RERA
EGPN 250950Z 20009KT 9999 SCT028 10/06 Q0983
EGPO 250950Z AUTO 16024KT 9999 BKN020/// BKN028/// OVC033/// 09/06 Q0975
EGPU 250850Z AUTO 20024G34KT 170V230 9999 -RA FEW017/// SCT027/// 09/07 Q0976
EGQA 241850Z 15008KT CAVOK 10/06 Q0985 RMK BLU
EGQK 250850Z AUTO 15006KT 9999 -RA FEW039/// SCT050/// 08/04 Q0980
EGQL 250850Z AUTO 20014KT 9999 FEW050/// 09/05 Q0983
EGQM 250950Z AUTO 17015KT 9999 NCD 09/06 Q0986
EGQS 250950Z 14013KT 9999 FEW035 SCT045 09/05 Q0980 RMK BLU
EGSC 250950Z 20011KT 9999 FEW045 12/08 Q0996
EGSH 250950Z 21011KT 180V240 9999 FEW035 11/08 Q0996 NOSIG
EGSS 250950Z AUTO 20012KT 9999 FEW048 10/08 Q0996
EGSY 250950Z 22009KT 9999 -RA SCT025 BKN037TCU 10/07 Q0994
EGTC 250950Z 21014KT 9999 FEW020 10/07 Q0995
EGTE 250950Z 20009KT 9999 -SHRA FEW010 SCT040CB 10/07 Q0995
EGTK 250950Z 20011KT 9999 FEW020 09/07 Q0995
EGUB 250850Z AUTO 17011KT //// // ///////// 10/08 Q0996
EGUL 250956Z AUTO 19008KT 9999 CLR 11/10 A2940 RMK AO2 SLP959 T01060103 $
EGUN 250856Z 22011KT 9999 BKN210 10/07 A2941 RMK AO2A SLP957 WND DATA ESTMD RVRNO $
EGUW 250850Z AUTO 20011KT 9999 BKN050/// 10/08 Q0996 RERA
EGVA 250956Z AUTO 21013KT 9999 CLR 10/07 A2938 RMK AO2 SLP953 T01040073 $
EGVN 250950Z 20008KT 9999 FEW025 10/06 Q0995 NOSIG RMK BLU BLU
EGVO 250850Z AUTO 17008KT 9999 FEW060/// BKN090/// 09/08 Q0996
EGVP 250850Z AUTO 21009KT 9999 -RA FEW038/// BKN050/// 09/08 Q0996
EGWU 250950Z 21009KT 9999 VCSH FEW015 BKN100 10/08 Q0997 TEMPO 6000 SHRA RMK BLU TEMPO WHT
EGXC 250950Z 20016KT CAVOK 11/08 Q0993 RMK BLU
EGXE 250850Z AUTO 17014KT 9999 NCD 09/06 Q0989
EGXP 250850Z AUTO 20012KT 9999 // NCD 09/06 Q0993
EGXS 250850Z AUTO 19015KT 9999 // NCD 09/07 Q0993
EGXT 250850Z AUTO 19012KT 9999 NCD 09/07 Q0994
EGXU 250850Z AUTO 17011KT 9999 NCD 09/06 Q0990
EGXV 250950Z AUTO 19008KT 9999 FEW090/// 10/07 Q0991
EGXW 250850Z AUTO 20017KT 9999 NCD 09/06 Q0993
EGXZ 250950Z AUTO 15009KT 9999 FEW026/// 10/07 Q0990
EGYD 250850Z AUTO 20016KT 9999 // NCD 09/07 Q0993
EGYM 250850Z AUTO 19012KT 9999 NCD 09/07 Q0995
EGYP 250950Z 04015KT 9999 BKN009 05/03 Q1009

About You

Log In Register UKGA membership

Airfields

Interactive airfield map Search by name Search by postcode Search by location Fuel prices Pilot reviews Latest
(No favourites selected)

Flight planning

Flight planning New flightplan NOTAM map LARS map & NOTAMs Danger area, mil. & TRA activations Weather map GPS route download Find waypoints Your waypoints New waypoint

Forums

Forums Currently discussing "Logbook entries"

Other items

Articles Events Links News Surveys Tips Other users Feedback UKGA membership About UKGA